createdAt,value
2023-02-23T00:02:07.374Z,99021.56
2023-02-23T00:04:35.726Z,99021.40
2023-02-23T00:07:04.119Z,99022.50
2023-02-23T00:09:35.908Z,99019.10
2023-02-23T00:12:09.237Z,99018.27
2023-02-23T00:14:38.310Z,99014.33
2023-02-23T00:17:14.533Z,99012.19
2023-02-23T00:19:45.856Z,99009.83
2023-02-23T00:22:13.698Z,99007.94
2023-02-23T00:24:42.808Z,99006.75
2023-02-23T00:27:17.520Z,99003.80
2023-02-23T00:29:49.277Z,99002.23
2023-02-23T00:32:19.986Z,99003.48
2023-02-23T00:34:49.736Z,99003.13
2023-02-23T00:37:18.647Z,99004.20
2023-02-23T00:39:49.865Z,99002.14
2023-02-23T00:42:17.785Z,98999.71
2023-02-23T00:44:47.591Z,99000.63
2023-02-23T00:47:15.567Z,98999.59
2023-02-23T00:49:45.056Z,99002.05
2023-02-23T00:52:14.714Z,99000.87
2023-02-23T00:54:42.699Z,98999.16
2023-02-23T00:57:10.737Z,99000.70
2023-02-23T00:59:38.565Z,99001.00
2023-02-23T01:02:06.467Z,98998.60
2023-02-23T01:04:34.404Z,98998.14
2023-02-23T01:07:06.357Z,98998.67
2023-02-23T01:09:34.315Z,98998.80
2023-02-23T01:12:02.266Z,98997.54
2023-02-23T01:14:31.264Z,98994.56
2023-02-23T01:17:00.040Z,98995.27
2023-02-23T01:19:28.571Z,98994.61
2023-02-23T01:21:56.532Z,98993.07
2023-02-23T01:24:24.485Z,98991.25
2023-02-23T01:26:52.319Z,98990.81
2023-02-23T01:29:21.352Z,98989.77
2023-02-23T01:31:51.775Z,98988.86
2023-02-23T01:34:23.740Z,98990.73
2023-02-23T01:36:51.604Z,98991.59
2023-02-23T01:39:20.791Z,98989.48
2023-02-23T01:41:54.185Z,98987.79
2023-02-23T01:44:23.481Z,98988.92
2023-02-23T01:46:51.429Z,98988.24
2023-02-23T01:49:30.822Z,98986.77
2023-02-23T01:52:06.804Z,98983.41
2023-02-23T01:54:38.702Z,98982.57
2023-02-23T01:57:10.919Z,98983.48
2023-02-23T01:59:43.114Z,98983.56
2023-02-23T02:02:13.352Z,98982.09
2023-02-23T02:04:46.446Z,98978.16
2023-02-23T02:07:18.343Z,98978.06
2023-02-23T02:10:21.739Z,98977.30
2023-02-23T02:12:54.725Z,98973.42
2023-02-23T02:15:31.676Z,98972.61
2023-02-23T02:18:09.328Z,98969.70
2023-02-23T02:20:44.840Z,98973.59
2023-02-23T02:23:31.394Z,98974.58
2023-02-23T02:26:21.053Z,98968.43
2023-02-23T02:29:03.788Z,98965.88
2023-02-23T02:31:40.791Z,98966.73
2023-02-23T02:34:08.626Z,98963.46
2023-02-23T02:37:04.562Z,98965.52
2023-02-23T02:39:46.724Z,98965.84
2023-02-23T02:42:39.940Z,98964.50
2023-02-23T02:45:22.155Z,98959.83
2023-02-23T02:47:58.656Z,98957.75
2023-02-23T02:50:41.601Z,98961.92
2023-02-23T02:53:12.833Z,98960.04
2023-02-23T02:55:48.212Z,98957.67
2023-02-23T02:58:17.816Z,98958.09
2023-02-23T03:01:07.156Z,98955.49
2023-02-23T03:03:57.244Z,98953.94
2023-02-23T03:06:49.858Z,98954.80
2023-02-23T03:09:52.947Z,98951.20
2023-02-23T03:13:02.243Z,98952.26
2023-02-23T03:16:05.621Z,98951.23
2023-02-23T03:19:14.139Z,98948.82
2023-02-23T03:22:27.875Z,98954.04
2023-02-23T03:25:45.405Z,98952.85
2023-02-23T03:28:45.645Z,98949.86
2023-02-23T03:31:52.021Z,98949.63
2023-02-23T03:34:51.170Z,98951.01
2023-02-23T03:37:49.967Z,98947.50
2023-02-23T03:40:48.130Z,98944.69
2023-02-23T03:43:41.740Z,98946.09
2023-02-23T03:46:31.172Z,98943.65
2023-02-23T03:49:22.639Z,98947.47
2023-02-23T03:52:17.110Z,98950.23
2023-02-23T03:55:19.351Z,98948.19
2023-02-23T03:58:10.098Z,98952.38
2023-02-23T04:01:04.442Z,98954.27
2023-02-23T04:03:55.705Z,98949.69
2023-02-23T04:06:45.880Z,98947.77
2023-02-23T04:09:32.685Z,98950.00
2023-02-23T04:12:45.210Z,98946.02
2023-02-23T04:15:27.781Z,98943.51
2023-02-23T04:17:56.217Z,98944.83
2023-02-23T04:20:25.149Z,98946.17
2023-02-23T04:22:53.229Z,98948.77
2023-02-23T04:25:22.921Z,98945.07
2023-02-23T04:27:51.253Z,98942.09
2023-02-23T04:30:20.497Z,98943.41
2023-02-23T04:32:48.426Z,98940.39
2023-02-23T04:35:16.419Z,98939.23
2023-02-23T04:37:44.230Z,98939.02
2023-02-23T04:40:12.723Z,98942.48
2023-02-23T04:42:41.178Z,98936.86
2023-02-23T04:45:09.770Z,98934.77
2023-02-23T04:47:37.763Z,98934.98
2023-02-23T04:50:06.172Z,98932.41
2023-02-23T04:52:35.055Z,98932.73
2023-02-23T04:55:03.705Z,98931.25
2023-02-23T04:57:31.570Z,98931.52
2023-02-23T04:59:59.679Z,98931.46
2023-02-23T05:02:27.602Z,98931.08
2023-02-23T05:04:55.465Z,98931.70
2023-02-23T05:07:23.618Z,98929.59
2023-02-23T05:09:51.495Z,98932.88
2023-02-23T05:12:19.843Z,98931.95
2023-02-23T05:14:47.731Z,98927.05
2023-02-23T05:17:15.562Z,98926.30
2023-02-23T05:19:43.400Z,98926.13
2023-02-23T05:22:12.666Z,98922.10
2023-02-23T05:24:40.900Z,98920.48
2023-02-23T05:27:13.880Z,98923.96
2023-02-23T05:29:41.729Z,98921.21
2023-02-23T05:32:09.612Z,98922.98
2023-02-23T05:34:39.091Z,98920.77
2023-02-23T05:37:06.903Z,98920.25
2023-02-23T05:39:34.653Z,98920.97
2023-02-23T05:42:02.450Z,98921.26
2023-02-23T05:44:30.262Z,98923.79
2023-02-23T05:46:58.194Z,98922.56
2023-02-23T05:49:25.981Z,98923.96
2023-02-23T05:51:53.779Z,98922.33
2023-02-23T05:54:21.725Z,98922.65
2023-02-23T05:56:50.020Z,98921.05
2023-02-23T05:59:17.920Z,98920.84
2023-02-23T06:01:46.005Z,98917.45
2023-02-23T06:04:14.221Z,98916.65
2023-02-23T06:06:42.052Z,98920.11
2023-02-23T06:09:09.945Z,98923.27
2023-02-23T06:11:37.755Z,98921.33
2023-02-23T06:14:05.663Z,98918.84
2023-02-23T06:16:33.516Z,98917.02
2023-02-23T06:19:01.436Z,98920.25
2023-02-23T06:21:29.237Z,98916.33
2023-02-23T06:24:00.591Z,98917.73
2023-02-23T06:26:29.352Z,98921.60
2023-02-23T06:28:57.270Z,98920.07
2023-02-23T06:31:25.109Z,98921.55
2023-02-23T06:33:53.001Z,98918.67
2023-02-23T06:36:21.042Z,98922.09
2023-02-23T06:38:48.980Z,98922.39
2023-02-23T06:41:18.081Z,98922.15
2023-02-23T06:43:46.020Z,98916.52
2023-02-23T06:46:13.935Z,98917.39
2023-02-23T06:48:41.871Z,98920.25
2023-02-23T06:51:09.929Z,98920.67
2023-02-23T06:53:37.736Z,98920.38
2023-02-23T06:56:06.257Z,98920.05
2023-02-23T06:58:34.152Z,98922.14
2023-02-23T07:01:02.237Z,98922.44
2023-02-23T07:03:30.115Z,98923.40
2023-02-23T07:05:58.085Z,98920.12
2023-02-23T07:08:25.969Z,98920.94
2023-02-23T07:10:53.894Z,98920.20
2023-02-23T07:13:22.258Z,98917.84
2023-02-23T07:15:50.864Z,98920.80
2023-02-23T07:18:19.080Z,98920.15
2023-02-23T07:20:46.916Z,98919.02
2023-02-23T07:23:14.757Z,98920.52
2023-02-23T07:25:42.608Z,98918.18
2023-02-23T07:28:14.087Z,98913.33
2023-02-23T07:30:42.131Z,98914.77
2023-02-23T07:33:10.164Z,98905.82
2023-02-23T07:35:38.121Z,98902.68
2023-02-23T07:38:07.420Z,98903.23
2023-02-23T07:40:35.350Z,98900.98
2023-02-23T07:43:03.432Z,98897.62
2023-02-23T07:45:31.419Z,98900.56
2023-02-23T07:48:00.001Z,98900.52
2023-02-23T07:50:27.880Z,98898.68
2023-02-23T07:52:56.057Z,98899.95
2023-02-23T07:55:24.052Z,98898.60
2023-02-23T07:57:51.953Z,98899.48
2023-02-23T08:00:20.192Z,98901.55
2023-02-23T08:02:48.217Z,98898.39
2023-02-23T08:05:16.242Z,98894.45
2023-02-23T08:07:44.629Z,98888.33
2023-02-23T08:10:12.591Z,98890.21
2023-02-23T08:12:40.694Z,98887.98
2023-02-23T08:15:09.934Z,98884.41
2023-02-23T08:17:38.974Z,98885.41
2023-02-23T08:20:08.354Z,98884.95
2023-02-23T08:22:48.413Z,98879.85
2023-02-23T08:25:18.105Z,98881.51
2023-02-23T08:27:47.009Z,98883.02
2023-02-23T08:30:15.964Z,98883.23
2023-02-23T08:32:43.795Z,98881.68
2023-02-23T08:35:12.034Z,98882.47
2023-02-23T08:37:41.888Z,98882.11
2023-02-23T08:40:10.483Z,98878.64
2023-02-23T08:42:38.364Z,98878.14
2023-02-23T08:45:08.629Z,98876.11
2023-02-23T08:47:36.978Z,98873.33
2023-02-23T08:50:05.918Z,98870.75
2023-02-23T08:52:34.112Z,98870.36
2023-02-23T08:55:01.956Z,98870.89
2023-02-23T08:57:33.187Z,98866.77
2023-02-23T09:00:02.279Z,98868.98
2023-02-23T09:02:30.234Z,98870.50
2023-02-23T09:04:59.144Z,98868.26
2023-02-23T09:07:27.110Z,98869.28
2023-02-23T09:09:56.358Z,98865.55
2023-02-23T09:12:24.866Z,98865.05
2023-02-23T09:14:53.874Z,98865.73
2023-02-23T09:17:23.101Z,98863.46
2023-02-23T09:19:51.636Z,98865.09
2023-02-23T09:22:19.817Z,98862.34
2023-02-23T09:24:47.852Z,98860.05
2023-02-23T09:27:15.863Z,98856.98
2023-02-23T09:29:44.508Z,98853.21
2023-02-23T09:32:12.707Z,98854.84
2023-02-23T09:34:40.748Z,98853.66
2023-02-23T09:37:08.883Z,98850.14
2023-02-23T09:39:39.107Z,98844.93
2023-02-23T09:42:30.978Z,98844.77
2023-02-23T09:45:04.885Z,98841.43
2023-02-23T09:47:49.140Z,98842.15
2023-02-23T09:50:22.673Z,98843.49
2023-02-23T09:52:55.248Z,98841.83
2023-02-23T09:55:23.453Z,98836.81
2023-02-23T09:57:51.466Z,98839.58
2023-02-23T10:00:27.451Z,98838.34
2023-02-23T10:03:05.991Z,98836.67
2023-02-23T10:05:40.710Z,98833.39
2023-02-23T10:08:28.719Z,98830.81
2023-02-23T10:11:07.628Z,98834.20
2023-02-23T10:13:45.383Z,98830.70
2023-02-23T10:16:45.671Z,98824.98
2023-02-23T10:19:38.932Z,98822.56
2023-02-23T10:22:09.181Z,98822.72
2023-02-23T10:24:43.146Z,98819.55
2023-02-23T10:27:17.786Z,98818.33
2023-02-23T10:29:51.675Z,98813.53
2023-02-23T10:32:32.799Z,98810.77
2023-02-23T10:35:01.631Z,98806.96
2023-02-23T10:37:29.663Z,98802.31
2023-02-23T10:39:57.945Z,98804.48
2023-02-23T10:42:31.891Z,98801.86
2023-02-23T10:45:00.117Z,98802.77
2023-02-23T10:47:36.298Z,98799.83
2023-02-23T10:50:06.532Z,98796.62
2023-02-23T10:52:45.173Z,98791.77
2023-02-23T10:55:28.916Z,98788.94
2023-02-23T10:58:18.436Z,98787.83
2023-02-23T11:01:02.654Z,98787.48
2023-02-23T11:03:42.904Z,98783.52
2023-02-23T11:06:40.523Z,98777.30
2023-02-23T11:09:44.510Z,98774.48
2023-02-23T11:12:25.499Z,98768.35
2023-02-23T11:14:56.720Z,98765.60
2023-02-23T11:17:25.182Z,98765.27
2023-02-23T11:20:04.779Z,98759.33
2023-02-23T11:22:36.119Z,98756.27
2023-02-23T11:25:17.275Z,98753.48
2023-02-23T11:27:51.390Z,98751.70
2023-02-23T11:30:24.588Z,98756.71
2023-02-23T11:33:10.734Z,98750.73
2023-02-23T11:35:39.131Z,98750.71
2023-02-23T11:38:24.034Z,98750.45
2023-02-23T11:41:01.231Z,98747.89
2023-02-23T11:43:29.390Z,98746.72
2023-02-23T11:46:00.900Z,98743.90
2023-02-23T11:48:34.402Z,98744.13
2023-02-23T11:51:02.591Z,98738.85
2023-02-23T11:53:36.362Z,98739.69
2023-02-23T11:56:11.082Z,98733.70
2023-02-23T11:58:43.278Z,98728.02
2023-02-23T12:01:14.253Z,98724.49
2023-02-23T12:03:51.808Z,98725.08
2023-02-23T12:06:29.982Z,98719.52
2023-02-23T12:09:28.051Z,98718.83
2023-02-23T12:12:01.803Z,98715.77
2023-02-23T12:14:37.267Z,98713.38
2023-02-23T12:17:42.082Z,98708.29
2023-02-23T12:20:16.556Z,98704.11
2023-02-23T12:22:51.470Z,98703.11
2023-02-23T12:25:27.547Z,98697.98
2023-02-23T12:28:18.188Z,98697.36
2023-02-23T12:31:18.796Z,98695.81
2023-02-23T12:33:52.576Z,98693.86
2023-02-23T12:36:55.606Z,98692.86
2023-02-23T12:39:30.763Z,98687.80
2023-02-23T12:42:23.125Z,98687.70
2023-02-23T12:45:01.800Z,98687.84
2023-02-23T12:47:33.906Z,98684.49
2023-02-23T12:50:21.829Z,98682.60
2023-02-23T12:52:54.683Z,98680.92
2023-02-23T12:55:41.894Z,98679.52
2023-02-23T12:58:34.852Z,98677.91
2023-02-23T13:01:12.789Z,98675.20
2023-02-23T13:03:56.328Z,98674.25
2023-02-23T13:06:37.377Z,98673.25
2023-02-23T13:09:53.209Z,98671.80
2023-02-23T13:12:29.391Z,98672.94
2023-02-23T13:15:10.421Z,98670.38
2023-02-23T13:17:46.178Z,98665.23
2023-02-23T13:20:30.979Z,98663.48
2023-02-23T13:23:04.082Z,98662.76
2023-02-23T13:25:45.307Z,98659.95
2023-02-23T13:28:28.672Z,98658.38
2023-02-23T13:30:57.952Z,98657.09
2023-02-23T13:33:43.642Z,98653.98
2023-02-23T13:36:13.164Z,98651.39
2023-02-23T13:38:53.216Z,98648.70
2023-02-23T13:41:39.251Z,98645.94
2023-02-23T13:44:24.260Z,98643.59
2023-02-23T13:47:05.558Z,98646.23
2023-02-23T13:49:49.408Z,98646.66
2023-02-23T13:52:38.107Z,98644.82
2023-02-23T13:55:26.731Z,98645.35
2023-02-23T13:58:03.286Z,98643.53
2023-02-23T14:00:33.596Z,98648.58
2023-02-23T14:03:07.132Z,98644.86
2023-02-23T14:05:44.398Z,98644.53
2023-02-23T14:08:28.719Z,98643.27
2023-02-23T14:10:57.378Z,98638.23
2023-02-23T14:13:29.022Z,98638.10
2023-02-23T14:16:18.994Z,98638.79
2023-02-23T14:19:12.394Z,98641.41
2023-02-23T14:21:49.971Z,98641.45
2023-02-23T14:24:19.758Z,98633.09
2023-02-23T14:27:38.381Z,98635.61
2023-02-23T14:30:16.806Z,98634.95
2023-02-23T14:32:49.741Z,98630.89
2023-02-23T14:35:32.825Z,98629.02
2023-02-23T14:38:05.059Z,98631.39
2023-02-23T14:40:39.121Z,98634.71
2023-02-23T14:43:35.983Z,98633.96
2023-02-23T14:46:08.732Z,98636.03
2023-02-23T14:48:40.557Z,98635.23
2023-02-23T14:51:25.400Z,98635.45
2023-02-23T14:53:53.402Z,98636.36
2023-02-23T14:56:28.045Z,98636.41
2023-02-23T14:58:59.377Z,98637.77
2023-02-23T15:01:34.593Z,98636.23
2023-02-23T15:04:08.724Z,98634.30
2023-02-23T15:06:38.304Z,98630.53
2023-02-23T15:09:08.335Z,98632.02
2023-02-23T15:11:37.214Z,98632.64
2023-02-23T15:14:07.371Z,98633.45
2023-02-23T15:16:37.505Z,98631.64
2023-02-23T15:19:07.433Z,98628.52
2023-02-23T15:21:36.814Z,98628.48
2023-02-23T15:24:11.435Z,98633.02
2023-02-23T15:26:41.227Z,98630.39
2023-02-23T15:29:18.515Z,98626.98
2023-02-23T15:31:55.394Z,98629.34
2023-02-23T15:34:26.442Z,98626.15
2023-02-23T15:36:59.814Z,98625.91
2023-02-23T15:39:53.215Z,98627.70
2023-02-23T15:42:25.940Z,98626.18
2023-02-23T15:44:57.285Z,98629.08
2023-02-23T15:47:31.587Z,98626.50
2023-02-23T15:50:07.456Z,98623.52
2023-02-23T15:52:45.100Z,98625.20
2023-02-23T15:55:26.464Z,98623.42
2023-02-23T15:57:57.262Z,98622.15
2023-02-23T16:00:36.871Z,98620.39
2023-02-23T16:03:06.559Z,98620.82
2023-02-23T16:05:47.005Z,98620.08
2023-02-23T16:08:23.111Z,98621.79
2023-02-23T16:11:17.248Z,98622.76
2023-02-23T16:13:46.638Z,98624.80
2023-02-23T16:16:20.541Z,98623.48
2023-02-23T16:18:54.349Z,98621.95
2023-02-23T16:21:25.293Z,98624.54
2023-02-23T16:23:55.115Z,98622.39
2023-02-23T16:26:29.075Z,98619.31
2023-02-23T16:29:00.716Z,98622.12
2023-02-23T16:31:44.631Z,98622.29
2023-02-23T16:34:31.450Z,98623.90
2023-02-23T16:37:01.600Z,98628.43
2023-02-23T16:39:31.668Z,98631.71
2023-02-23T16:41:59.976Z,98631.34
2023-02-23T16:44:41.414Z,98630.94
2023-02-23T16:47:25.176Z,98628.98
2023-02-23T16:49:53.136Z,98629.82
2023-02-23T16:52:23.894Z,98628.98
2023-02-23T16:54:55.299Z,98628.23
2023-02-23T16:57:38.417Z,98629.03
2023-02-23T17:00:15.573Z,98629.48
2023-02-23T17:02:43.854Z,98626.38
2023-02-23T17:05:18.918Z,98626.38
2023-02-23T17:07:48.661Z,98627.51
2023-02-23T17:10:33.012Z,98621.95
2023-02-23T17:13:05.067Z,98623.22
2023-02-23T17:15:36.779Z,98623.65
2023-02-23T17:18:05.782Z,98620.32
2023-02-23T17:20:33.850Z,98619.27
2023-02-23T17:23:02.652Z,98621.13
2023-02-23T17:25:30.628Z,98621.05
2023-02-23T17:28:00.368Z,98623.86
2023-02-23T17:30:29.748Z,98625.73
2023-02-23T17:32:59.571Z,98626.27
2023-02-23T17:35:28.337Z,98625.91
2023-02-23T17:37:56.191Z,98627.14
2023-02-23T17:40:36.199Z,98626.42
2023-02-23T17:43:07.394Z,98624.33
2023-02-23T17:45:35.384Z,98627.48
2023-02-23T17:48:03.335Z,98625.30
2023-02-23T17:50:31.196Z,98623.70
2023-02-23T17:52:59.066Z,98619.33
2023-02-23T17:55:27.006Z,98615.98
2023-02-23T17:57:54.862Z,98614.48
2023-02-23T18:00:23.872Z,98616.75
2023-02-23T18:02:51.842Z,98617.42
2023-02-23T18:05:19.859Z,98614.87
2023-02-23T18:07:48.938Z,98613.33
2023-02-23T18:10:17.305Z,98611.65
2023-02-23T18:12:45.372Z,98608.84
2023-02-23T18:15:13.355Z,98608.19
2023-02-23T18:17:41.318Z,98611.20
2023-02-23T18:20:14.067Z,98611.73
2023-02-23T18:22:43.640Z,98611.20
2023-02-23T18:25:28.678Z,98611.45
2023-02-23T18:27:58.678Z,98615.88
2023-02-23T18:30:27.372Z,98614.48
2023-02-23T18:32:57.679Z,98616.95
2023-02-23T18:35:26.586Z,98618.00
2023-02-23T18:37:54.741Z,98616.40
2023-02-23T18:40:23.943Z,98616.53
2023-02-23T18:42:52.026Z,98614.38
2023-02-23T18:45:20.028Z,98616.20
2023-02-23T18:47:47.989Z,98614.52
2023-02-23T18:50:19.185Z,98614.23
2023-02-23T18:52:50.846Z,98615.05
2023-02-23T18:55:19.854Z,98612.31
2023-02-23T18:57:48.769Z,98608.59
2023-02-23T19:00:18.058Z,98609.90
2023-02-23T19:02:46.651Z,98612.27
2023-02-23T19:05:18.176Z,98612.93
2023-02-23T19:07:46.940Z,98617.79
2023-02-23T19:10:15.380Z,98615.65
2023-02-23T19:12:43.825Z,98613.42
2023-02-23T19:15:12.322Z,98613.49
2023-02-23T19:17:40.645Z,98616.35
2023-02-23T19:20:13.087Z,98613.23
2023-02-23T19:22:41.738Z,98611.86
2023-02-23T19:25:14.399Z,98611.39
2023-02-23T19:27:43.306Z,98612.66
2023-02-23T19:30:13.609Z,98611.16
2023-02-23T19:32:43.903Z,98608.23
2023-02-23T19:35:16.192Z,98607.27
2023-02-23T19:37:49.368Z,98606.04
2023-02-23T19:40:20.696Z,98600.69
2023-02-23T19:42:50.734Z,98599.37
2023-02-23T19:45:18.740Z,98600.17
2023-02-23T19:47:46.764Z,98600.04
2023-02-23T19:50:19.135Z,98598.99
2023-02-23T19:52:48.207Z,98595.31
2023-02-23T19:55:16.278Z,98596.63
2023-02-23T19:57:44.388Z,98594.34
2023-02-23T20:00:13.394Z,98590.83
2023-02-23T20:02:44.709Z,98589.23
2023-02-23T20:05:15.960Z,98590.59
2023-02-23T20:07:44.662Z,98590.92
2023-02-23T20:10:16.272Z,98590.64
2023-02-23T20:12:44.962Z,98592.20
2023-02-23T20:15:14.884Z,98589.63
2023-02-23T20:17:43.445Z,98587.80
2023-02-23T20:20:14.166Z,98585.64
2023-02-23T20:22:42.150Z,98579.80
2023-02-23T20:25:15.713Z,98578.55
2023-02-23T20:27:44.449Z,98580.56
2023-02-23T20:30:13.855Z,98577.67
2023-02-23T20:32:43.092Z,98576.70
2023-02-23T20:35:14.619Z,98577.11
2023-02-23T20:37:43.561Z,98574.88
2023-02-23T20:40:16.438Z,98573.58
2023-02-23T20:42:48.492Z,98576.17
2023-02-23T20:45:20.457Z,98573.79
2023-02-23T20:47:53.161Z,98572.95
2023-02-23T20:50:23.046Z,98567.08
2023-02-23T20:52:51.561Z,98564.18
2023-02-23T20:55:19.593Z,98564.41
2023-02-23T20:57:48.037Z,98561.92
2023-02-23T21:00:24.216Z,98561.17
2023-02-23T21:02:55.572Z,98559.77
2023-02-23T21:05:29.270Z,98556.52
2023-02-23T21:08:05.889Z,98553.70
2023-02-23T21:10:37.264Z,98552.50
2023-02-23T21:13:05.872Z,98550.29
2023-02-23T21:15:35.064Z,98552.11
2023-02-23T21:18:03.592Z,98547.46
2023-02-23T21:20:32.882Z,98545.11
2023-02-23T21:23:01.812Z,98545.20
2023-02-23T21:25:30.255Z,98540.86
2023-02-23T21:28:01.930Z,98538.83
2023-02-23T21:30:30.486Z,98536.02
2023-02-23T21:32:59.534Z,98534.09
2023-02-23T21:35:27.672Z,98529.73
2023-02-23T21:37:56.843Z,98531.45
2023-02-23T21:40:24.970Z,98530.91
2023-02-23T21:42:53.260Z,98529.40
2023-02-23T21:45:21.092Z,98530.83
2023-02-23T21:47:49.456Z,98528.25
2023-02-23T21:50:19.723Z,98521.64
2023-02-23T21:52:48.799Z,98519.23
2023-02-23T21:55:24.611Z,98521.04
2023-02-23T21:57:52.558Z,98521.42
2023-02-23T22:00:21.681Z,98517.77
2023-02-23T22:02:51.003Z,98515.79
2023-02-23T22:05:19.535Z,98514.36
2023-02-23T22:07:51.839Z,98513.11
2023-02-23T22:10:22.440Z,98512.42
2023-02-23T22:12:56.087Z,98514.64
2023-02-23T22:15:27.945Z,98514.28
2023-02-23T22:17:56.423Z,98516.87
2023-02-23T22:20:25.379Z,98513.84
2023-02-23T22:22:53.215Z,98507.98
2023-02-23T22:25:21.123Z,98506.55
2023-02-23T22:27:49.018Z,98502.82
2023-02-23T22:30:20.135Z,98498.89
2023-02-23T22:32:48.158Z,98496.88
2023-02-23T22:35:16.284Z,98493.61
2023-02-23T22:37:44.122Z,98491.28
2023-02-23T22:40:13.726Z,98491.08
2023-02-23T22:42:43.433Z,98485.56
2023-02-23T22:45:11.565Z,98483.03
2023-02-23T22:47:39.714Z,98480.50
2023-02-23T22:50:11.859Z,98478.34
2023-02-23T22:52:40.781Z,98475.42
2023-02-23T22:55:09.301Z,98469.30
2023-02-23T22:57:37.164Z,98471.02
2023-02-23T23:00:10.364Z,98472.21
2023-02-23T23:02:38.216Z,98473.21
2023-02-23T23:05:07.069Z,98471.09
2023-02-23T23:07:35.122Z,98470.47
2023-02-23T23:10:05.639Z,98465.73
2023-02-23T23:12:34.397Z,98462.03
2023-02-23T23:15:03.506Z,98459.95
2023-02-23T23:17:31.907Z,98456.77
2023-02-23T23:20:10.645Z,98452.40
2023-02-23T23:22:38.696Z,98447.13
2023-02-23T23:25:14.674Z,98441.94
2023-02-23T23:27:44.928Z,98442.90
2023-02-23T23:30:13.561Z,98441.14
2023-02-23T23:32:41.614Z,98441.67
2023-02-23T23:35:13.595Z,98442.25
2023-02-23T23:37:41.480Z,98442.85
2023-02-23T23:40:14.243Z,98440.50
2023-02-23T23:42:46.058Z,98437.33
2023-02-23T23:45:16.352Z,98432.37
2023-02-23T23:47:45.625Z,98429.39
2023-02-23T23:50:15.601Z,98427.79
2023-02-23T23:52:45.013Z,98423.22
2023-02-23T23:55:14.826Z,98416.38
2023-02-23T23:57:42.702Z,98414.31
